createdAt,value
2022-08-05T00:00:50.308Z,71.60
2022-08-05T00:03:17.643Z,72.20
2022-08-05T00:06:04.737Z,72.70
2022-08-05T00:08:35.492Z,72.80
2022-08-05T00:11:23.845Z,72.60
2022-08-05T00:13:56.939Z,72.40
2022-08-05T00:16:36.485Z,73.10
2022-08-05T00:19:11.403Z,74.20
2022-08-05T00:21:38.512Z,74.40
2022-08-05T00:24:10.903Z,74.40
2022-08-05T00:26:39.146Z,74.80
2022-08-05T00:29:17.864Z,75.10
2022-08-05T00:32:11.078Z,74.60
2022-08-05T00:34:56.344Z,75.60
2022-08-05T00:37:20.142Z,75.50
2022-08-05T00:39:57.895Z,75.30
2022-08-05T00:42:35.368Z,75.40
2022-08-05T00:45:05.812Z,74.30
2022-08-05T00:47:57.266Z,76.10
2022-08-05T00:50:25.521Z,76.70
2022-08-05T00:52:54.886Z,77.40
2022-08-05T00:55:22.686Z,77.60
2022-08-05T00:57:58.179Z,78.30
2022-08-05T01:00:30.917Z,78.90
2022-08-05T01:02:59.691Z,79.20
2022-08-05T01:05:27.785Z,79.60
2022-08-05T01:08:40.931Z,79.60
2022-08-05T01:10:52.454Z,78.80
2022-08-05T01:13:57.997Z,78.30
2022-08-05T01:16:39.261Z,77.60
2022-08-05T01:19:20.318Z,76.00
2022-08-05T01:22:23.925Z,76.40
2022-08-05T01:25:21.448Z,76.10
2022-08-05T01:27:55.701Z,77.60
2022-08-05T01:30:34.332Z,78.10
2022-08-05T01:33:08.380Z,79.60
2022-08-05T01:35:52.239Z,80.70
2022-08-05T01:38:27.156Z,80.60
2022-08-05T01:40:58.881Z,80.60
2022-08-05T01:43:27.962Z,80.40
2022-08-05T01:45:57.693Z,80.60
2022-08-05T01:48:29.604Z,78.90
2022-08-05T01:50:57.714Z,80.40
2022-08-05T01:53:57.401Z,81.00
2022-08-05T01:58:12.249Z,79.20
2022-08-05T01:59:08.322Z,80.00
2022-08-05T02:01:39.953Z,80.10
2022-08-05T02:04:10.232Z,80.70
2022-08-05T02:06:39.342Z,81.00
2022-08-05T02:09:07.768Z,81.20
2022-08-05T02:12:04.128Z,81.20
2022-08-05T02:14:34.270Z,83.50
2022-08-05T02:18:27.608Z,83.30
2022-08-05T02:20:09.038Z,82.80
2022-08-05T02:22:42.363Z,83.10
2022-08-05T02:25:17.043Z,83.20
2022-08-05T02:27:59.093Z,84.30
2022-08-05T02:30:31.067Z,83.70
2022-08-05T02:33:00.273Z,84.50
2022-08-05T02:35:37.692Z,83.70
2022-08-05T02:38:13.385Z,83.50
2022-08-05T02:40:46.994Z,83.40
2022-08-05T02:43:16.855Z,83.10
2022-08-05T02:45:52.912Z,83.20
2022-08-05T02:48:31.215Z,82.90
2022-08-05T02:51:02.801Z,83.00
2022-08-05T02:53:39.580Z,83.10
2022-08-05T02:56:16.152Z,83.20
2022-08-05T02:58:51.479Z,83.40
2022-08-05T03:01:27.271Z,83.70
2022-08-05T03:04:03.170Z,84.70
2022-08-05T03:06:55.501Z,85.00
2022-08-05T03:09:36.172Z,85.10
2022-08-05T03:12:04.786Z,85.20
2022-08-05T03:14:31.774Z,85.80
2022-08-05T03:16:59.169Z,85.90
2022-08-05T03:19:33.222Z,86.00
2022-08-05T03:22:04.960Z,86.10
2022-08-05T03:24:47.203Z,86.50
2022-08-05T03:27:18.985Z,87.00
2022-08-05T03:30:07.346Z,87.20
2022-08-05T03:32:33.587Z,87.50
2022-08-05T03:35:00.912Z,88.10
2022-08-05T03:37:28.049Z,87.70
2022-08-05T03:39:59.235Z,88.00
2022-08-05T03:42:28.937Z,89.20
2022-08-05T03:44:56.987Z,89.20
2022-08-05T03:47:24.594Z,89.60
2022-08-05T03:49:52.532Z,88.60
2022-08-05T03:52:36.958Z,89.70
2022-08-05T03:56:04.164Z,89.60
2022-08-05T03:58:21.988Z,90.30
2022-08-05T04:00:59.995Z,90.70
2022-08-05T04:03:29.348Z,90.60
2022-08-05T04:05:59.046Z,91.20
2022-08-05T04:08:35.026Z,91.50
2022-08-05T04:11:07.549Z,92.20
2022-08-05T04:13:50.155Z,92.60
2022-08-05T04:16:25.020Z,92.70
2022-08-05T04:18:54.807Z,93.00
2022-08-05T04:22:10.163Z,92.60
2022-08-05T04:24:19.502Z,92.90
2022-08-05T04:26:51.032Z,92.50
2022-08-05T04:29:18.216Z,92.80
2022-08-05T04:31:46.997Z,92.60
2022-08-05T04:34:31.548Z,93.80
2022-08-05T04:37:00.712Z,92.40
2022-08-05T04:39:27.964Z,91.50
2022-08-05T04:41:55.433Z,94.20
2022-08-05T04:44:29.489Z,94.90
2022-08-05T04:46:59.166Z,94.30
2022-08-05T04:49:39.082Z,94.10
2022-08-05T04:52:15.174Z,94.50
2022-08-05T04:54:42.393Z,95.00
2022-08-05T04:57:09.449Z,95.50
2022-08-05T04:59:38.516Z,95.50
2022-08-05T05:02:37.540Z,95.90
2022-08-05T05:05:02.229Z,95.40
2022-08-05T05:07:32.491Z,96.10
2022-08-05T05:10:02.154Z,96.90
2022-08-05T05:12:30.065Z,96.90
2022-08-05T05:14:57.070Z,97.40
2022-08-05T05:17:55.872Z,97.00
2022-08-05T05:20:12.950Z,96.70
2022-08-05T05:22:41.154Z,96.60
2022-08-05T05:25:16.765Z,96.60
2022-08-05T05:27:53.617Z,96.10
2022-08-05T05:30:29.203Z,95.90
2022-08-05T05:33:00.377Z,95.60
2022-08-05T05:35:37.892Z,94.70
2022-08-05T05:38:08.899Z,94.70
2022-08-05T05:40:36.712Z,94.70
2022-08-05T05:43:03.820Z,95.10
2022-08-05T05:45:30.860Z,95.70
2022-08-05T05:48:06.762Z,95.60
2022-08-05T05:50:43.934Z,96.30
2022-08-05T05:53:20.804Z,96.50
2022-08-05T05:55:52.198Z,96.90
2022-08-05T05:58:31.990Z,97.10
2022-08-05T06:01:12.575Z,97.40
2022-08-05T06:04:32.797Z,97.80
2022-08-05T06:07:01.410Z,98.10
2022-08-05T06:09:49.156Z,98.60
2022-08-05T06:12:15.833Z,98.30
2022-08-05T06:14:44.540Z,98.60
2022-08-05T06:17:24.309Z,98.40
2022-08-05T06:19:59.064Z,98.30
2022-08-05T06:22:33.806Z,97.90
2022-08-05T06:25:25.322Z,97.60
2022-08-05T06:28:10.718Z,97.70
2022-08-05T06:30:39.338Z,97.40
2022-08-05T06:33:09.978Z,96.40
2022-08-05T06:36:07.089Z,96.60
2022-08-05T06:38:35.682Z,96.30
2022-08-05T06:42:00.872Z,96.50
2022-08-05T06:44:30.181Z,95.40
2022-08-05T06:47:10.374Z,95.50
2022-08-05T06:50:01.172Z,95.10
2022-08-05T06:52:37.780Z,94.30
2022-08-05T06:55:06.455Z,94.30
2022-08-05T06:57:57.676Z,94.30
2022-08-05T07:00:24.487Z,94.20
2022-08-05T07:02:53.649Z,93.40
2022-08-05T07:05:24.623Z,93.10
2022-08-05T07:08:04.011Z,93.20
2022-08-05T07:10:32.735Z,93.20
2022-08-05T07:13:57.130Z,93.10
2022-08-05T07:16:50.970Z,92.50
2022-08-05T07:19:11.057Z,92.20
2022-08-05T07:22:00.361Z,91.90
2022-08-05T07:24:28.554Z,90.60
2022-08-05T07:26:55.752Z,90.60
2022-08-05T07:29:25.520Z,90.00
2022-08-05T07:32:10.181Z,89.70
2022-08-05T07:34:42.042Z,89.00
2022-08-05T07:37:11.565Z,87.60
2022-08-05T07:40:04.041Z,87.70
2022-08-05T07:42:33.454Z,87.60
2022-08-05T07:45:01.479Z,87.80
2022-08-05T07:47:41.968Z,88.40
2022-08-05T07:50:10.113Z,86.90
2022-08-05T07:52:44.319Z,86.80
2022-08-05T07:55:15.932Z,86.40
2022-08-05T07:58:03.140Z,84.40
2022-08-05T08:00:31.162Z,84.20
2022-08-05T08:03:14.921Z,84.10
2022-08-05T08:05:49.473Z,83.20
2022-08-05T08:08:19.746Z,82.90
2022-08-05T08:10:48.699Z,82.40
2022-08-05T08:13:22.142Z,82.30
2022-08-05T08:16:35.296Z,80.90
2022-08-05T08:18:43.465Z,80.50
2022-08-05T08:21:17.862Z,79.40
2022-08-05T08:24:02.806Z,78.60
2022-08-05T08:26:32.081Z,77.10
2022-08-05T08:29:21.756Z,75.90
2022-08-05T08:31:48.387Z,76.40
2022-08-05T08:34:16.737Z,72.30
2022-08-05T08:36:50.578Z,71.80
2022-08-05T08:39:23.630Z,70.80
2022-08-05T08:41:59.574Z,71.70
2022-08-05T08:45:22.227Z,70.90
2022-08-05T08:52:03.069Z,69.10
2022-08-05T08:54:11.168Z,68.40
2022-08-05T08:56:48.572Z,67.30
2022-08-05T08:59:20.844Z,65.90
2022-08-05T09:01:57.533Z,66.10
2022-08-05T09:04:30.674Z,66.30
2022-08-05T09:06:58.741Z,66.50
2022-08-05T09:09:34.650Z,67.10
2022-08-05T09:12:14.428Z,65.30
2022-08-05T09:14:58.131Z,64.90
2022-08-05T09:17:40.989Z,65.80
2022-08-05T09:20:11.527Z,64.30
2022-08-05T09:23:09.271Z,64.60
2022-08-05T09:26:01.240Z,63.30
2022-08-05T09:28:32.641Z,64.00
2022-08-05T09:31:22.252Z,62.30
2022-08-05T09:33:59.111Z,61.50
2022-08-05T09:36:55.945Z,59.40
2022-08-05T09:39:41.200Z,58.60
2022-08-05T09:42:24.491Z,59.10
2022-08-05T09:45:03.382Z,59.50
2022-08-05T09:47:55.556Z,59.30
2022-08-05T09:50:49.686Z,59.10
2022-08-05T09:53:25.895Z,59.00
2022-08-05T09:56:13.159Z,59.20
2022-08-05T09:58:42.018Z,60.40
2022-08-05T10:01:14.965Z,58.70
2022-08-05T10:04:03.241Z,60.00
2022-08-05T10:06:31.978Z,60.00
2022-08-05T10:09:27.278Z,60.10
2022-08-05T10:12:30.183Z,59.70
2022-08-05T10:15:17.263Z,59.80
2022-08-05T10:18:09.319Z,59.60
2022-08-05T10:20:47.814Z,59.80
2022-08-05T10:23:34.431Z,57.80
2022-08-05T10:26:13.912Z,57.50
2022-08-05T10:28:44.978Z,57.90
2022-08-05T10:32:54.813Z,56.60
2022-08-05T10:34:07.150Z,56.00
2022-08-05T10:36:37.653Z,55.70
2022-08-05T10:39:15.021Z,55.10
2022-08-05T10:42:02.566Z,55.20
2022-08-05T10:44:32.324Z,55.40
2022-08-05T10:47:10.129Z,54.40
2022-08-05T10:50:20.631Z,54.50
2022-08-05T10:53:00.032Z,55.80
2022-08-05T10:55:27.817Z,55.80
2022-08-05T10:58:09.565Z,55.20
2022-08-05T11:00:42.239Z,54.80
2022-08-05T11:03:24.893Z,55.60
2022-08-05T11:06:16.135Z,57.90
2022-08-05T11:09:24.163Z,56.30
2022-08-05T11:11:59.691Z,57.00
2022-08-05T11:17:58.650Z,56.00
2022-08-05T11:21:11.653Z,56.70
2022-08-05T11:24:04.559Z,56.70
2022-08-05T11:26:38.924Z,56.40
2022-08-05T11:29:12.996Z,55.20
2022-08-05T11:31:57.044Z,55.70
2022-08-05T11:34:51.969Z,55.10
2022-08-05T11:38:30.028Z,55.20
2022-08-05T11:41:03.674Z,54.90
2022-08-05T11:44:05.061Z,54.50
2022-08-05T11:47:09.184Z,53.40
2022-08-05T11:49:34.062Z,53.00
2022-08-05T11:52:11.494Z,52.90
2022-08-05T11:54:40.739Z,53.50
2022-08-05T11:57:25.809Z,53.60
2022-08-05T11:59:54.585Z,52.80
2022-08-05T12:02:30.134Z,52.30
2022-08-05T12:05:00.851Z,52.60
2022-08-05T12:08:02.662Z,52.40
2022-08-05T12:10:42.867Z,53.00
2022-08-05T12:13:14.629Z,52.60
2022-08-05T12:15:49.890Z,52.90
2022-08-05T12:18:32.858Z,52.60
2022-08-05T12:21:18.997Z,51.60
2022-08-05T12:24:08.351Z,52.10
2022-08-05T12:26:53.482Z,51.80
2022-08-05T12:29:29.146Z,51.30
2022-08-05T12:32:07.606Z,50.90
2022-08-05T12:34:38.539Z,50.90
2022-08-05T12:37:17.525Z,50.80
2022-08-05T12:39:52.331Z,50.80
2022-08-05T12:42:25.383Z,49.60
2022-08-05T12:44:52.701Z,49.20
2022-08-05T12:47:31.059Z,50.60
2022-08-05T12:50:04.464Z,50.90
2022-08-05T12:52:42.244Z,50.30
2022-08-05T12:55:27.443Z,49.70
2022-08-05T12:58:50.933Z,49.30
2022-08-05T13:02:02.061Z,50.30
2022-08-05T13:03:41.525Z,50.00
2022-08-05T13:06:17.626Z,51.10
2022-08-05T13:08:51.740Z,49.60
2022-08-05T13:11:25.525Z,49.70
2022-08-05T13:14:24.902Z,49.60
2022-08-05T13:17:32.018Z,50.80
2022-08-05T13:20:20.302Z,50.00
2022-08-05T13:23:01.824Z,50.90
2022-08-05T13:25:51.707Z,51.50
2022-08-05T13:28:22.609Z,50.30
2022-08-05T13:30:53.155Z,51.00
2022-08-05T13:34:23.188Z,50.20
2022-08-05T13:36:09.628Z,50.60
2022-08-05T13:38:42.094Z,51.90
2022-08-05T13:41:10.984Z,52.20
2022-08-05T13:43:44.366Z,53.10
2022-08-05T13:46:13.791Z,52.40
2022-08-05T13:48:57.908Z,52.00
2022-08-05T13:51:36.639Z,52.40
2022-08-05T13:54:12.266Z,50.30
2022-08-05T13:56:44.937Z,51.50
2022-08-05T13:59:19.582Z,52.50
2022-08-05T14:01:58.337Z,50.60
2022-08-05T14:04:49.738Z,51.90
2022-08-05T14:07:59.741Z,51.70
2022-08-05T14:10:13.345Z,52.00
2022-08-05T14:12:42.802Z,50.70
2022-08-05T14:16:07.676Z,51.30
2022-08-05T14:18:03.939Z,51.20
2022-08-05T14:20:32.827Z,53.00
2022-08-05T14:23:00.396Z,53.50
2022-08-05T14:25:30.123Z,53.50
2022-08-05T14:27:58.484Z,53.40
2022-08-05T14:30:27.711Z,53.90
2022-08-05T14:32:54.999Z,53.60
2022-08-05T14:35:23.918Z,54.40
2022-08-05T14:38:04.701Z,54.70
2022-08-05T14:40:32.416Z,55.20
2022-08-05T14:43:01.102Z,55.10
2022-08-05T14:45:28.146Z,55.60
2022-08-05T14:48:03.475Z,56.00
2022-08-05T14:50:36.122Z,55.60
2022-08-05T14:53:07.872Z,55.80
2022-08-05T14:55:39.625Z,56.10
2022-08-05T14:58:13.672Z,57.30
2022-08-05T15:00:58.786Z,56.90
2022-08-05T15:03:33.959Z,57.30
2022-08-05T15:06:14.851Z,55.90
2022-08-05T15:09:01.123Z,57.10
2022-08-05T15:11:53.067Z,56.30
2022-08-05T15:14:34.963Z,56.00
2022-08-05T15:17:10.032Z,56.60
2022-08-05T15:19:41.718Z,56.00
2022-08-05T15:22:16.190Z,56.70
2022-08-05T15:24:44.427Z,57.60
2022-08-05T15:27:11.746Z,57.50
2022-08-05T15:29:41.880Z,57.10
2022-08-05T15:32:09.316Z,57.40
2022-08-05T15:34:36.441Z,57.60
2022-08-05T15:37:06.925Z,58.10
2022-08-05T15:41:00.099Z,57.90
2022-08-05T15:42:55.890Z,58.10
2022-08-05T15:45:16.751Z,58.70
2022-08-05T15:47:46.504Z,58.80
2022-08-05T15:50:16.054Z,60.40
2022-08-05T15:52:53.517Z,62.70
2022-08-05T15:55:24.997Z,63.90
2022-08-05T15:58:09.342Z,65.10
2022-08-05T16:00:57.038Z,66.40
2022-08-05T16:03:32.825Z,67.40
2022-08-05T16:06:01.397Z,68.20
2022-08-05T16:08:30.724Z,68.00
2022-08-05T16:10:58.852Z,68.70
2022-08-05T16:13:34.290Z,69.50
2022-08-05T16:16:05.545Z,70.10
2022-08-05T16:18:33.197Z,70.80
2022-08-05T16:21:02.694Z,71.40
2022-08-05T16:23:32.867Z,71.30
2022-08-05T16:26:26.239Z,71.00
2022-08-05T16:28:54.702Z,71.20
2022-08-05T16:31:22.077Z,70.60
2022-08-05T16:33:49.895Z,71.10
2022-08-05T16:36:20.472Z,71.50
2022-08-05T16:38:54.704Z,71.70
2022-08-05T16:42:15.216Z,71.30
2022-08-05T16:44:11.653Z,70.90
2022-08-05T16:46:41.219Z,71.10
2022-08-05T16:49:22.613Z,71.10
2022-08-05T16:51:51.078Z,71.40
2022-08-05T16:54:25.838Z,71.70
2022-08-05T16:56:56.051Z,72.20
2022-08-05T16:59:23.390Z,72.50
2022-08-05T17:01:53.837Z,72.50
2022-08-05T17:04:28.207Z,72.40
2022-08-05T17:07:01.196Z,73.20
2022-08-05T17:09:30.032Z,73.90
2022-08-05T17:11:59.758Z,74.40
2022-08-05T17:14:36.810Z,74.30
2022-08-05T17:17:06.853Z,74.30
2022-08-05T17:19:43.888Z,74.40
2022-08-05T17:22:24.640Z,74.80
2022-08-05T17:24:57.257Z,75.40
2022-08-05T17:27:33.664Z,75.90
2022-08-05T17:30:02.483Z,76.30
2022-08-05T17:32:32.193Z,76.80
2022-08-05T17:35:02.047Z,76.90
2022-08-05T17:37:40.546Z,77.20
2022-08-05T17:40:15.684Z,77.20
2022-08-05T17:42:50.859Z,77.70
2022-08-05T17:45:21.244Z,78.10
2022-08-05T17:47:54.486Z,78.10
2022-08-05T17:50:29.526Z,78.90
2022-08-05T17:53:04.979Z,78.90
2022-08-05T17:55:38.511Z,80.10
2022-08-05T17:58:13.580Z,81.00
2022-08-05T18:00:47.775Z,81.90
2022-08-05T18:03:58.612Z,82.10
2022-08-05T18:06:11.997Z,82.60
2022-08-05T18:08:44.711Z,82.60
2022-08-05T18:11:23.663Z,83.10
2022-08-05T18:13:52.175Z,83.50
2022-08-05T18:16:20.624Z,84.20
2022-08-05T18:18:50.062Z,85.00
2022-08-05T18:21:20.017Z,86.10
2022-08-05T18:23:53.886Z,86.80
2022-08-05T18:26:29.619Z,87.00
2022-08-05T18:28:59.766Z,87.50
2022-08-05T18:31:33.156Z,88.00
2022-08-05T18:34:03.882Z,88.50
2022-08-05T18:36:35.441Z,87.70
2022-08-05T18:39:22.435Z,88.80
2022-08-05T18:42:01.235Z,89.20
2022-08-05T18:44:34.777Z,89.50
2022-08-05T18:47:03.922Z,90.10
2022-08-05T18:49:58.163Z,90.00
2022-08-05T18:52:33.684Z,90.00
2022-08-05T18:55:05.482Z,90.50
2022-08-05T18:57:50.326Z,90.90
2022-08-05T19:00:21.046Z,91.70
2022-08-05T19:02:55.737Z,92.00
2022-08-05T19:06:11.483Z,92.30
2022-08-05T19:08:12.114Z,92.50
2022-08-05T19:10:40.648Z,92.90
2022-08-05T19:13:12.302Z,93.80
2022-08-05T19:15:59.347Z,94.60
2022-08-05T19:18:28.865Z,94.70
2022-08-05T19:20:56.142Z,95.50
2022-08-05T19:24:05.544Z,95.90
2022-08-05T19:26:11.372Z,96.10
2022-08-05T19:28:43.186Z,96.50
2022-08-05T19:31:13.420Z,96.70
2022-08-05T19:33:47.902Z,96.80
2022-08-05T19:36:23.002Z,97.10
2022-08-05T19:38:50.017Z,97.50
2022-08-05T19:41:17.015Z,97.60
2022-08-05T19:44:04.837Z,98.00
2022-08-05T19:46:35.232Z,98.30
2022-08-05T19:54:05.234Z,98.60
2022-08-05T19:56:20.646Z,99.00
2022-08-05T19:58:59.243Z,99.80
2022-08-05T20:01:46.250Z,99.90
2022-08-05T20:04:14.187Z,99.90
2022-08-05T20:06:45.986Z,99.90
2022-08-05T20:09:14.462Z,99.90
2022-08-05T20:11:41.653Z,99.90
2022-08-05T20:14:23.500Z,99.90
2022-08-05T20:16:54.676Z,99.90
2022-08-05T20:19:21.722Z,99.90
2022-08-05T20:21:50.118Z,99.90
2022-08-05T20:24:17.120Z,99.90
2022-08-05T20:26:44.890Z,99.90
2022-08-05T20:29:26.801Z,99.90
2022-08-05T20:31:58.171Z,99.90
2022-08-05T20:34:26.624Z,99.90
2022-08-05T20:36:53.758Z,99.90
2022-08-05T20:39:22.644Z,99.90
2022-08-05T20:41:49.782Z,99.90
2022-08-05T20:44:30.556Z,99.90
2022-08-05T20:47:03.189Z,99.90
2022-08-05T20:49:33.232Z,99.90
2022-08-05T20:52:05.520Z,99.90
2022-08-05T20:54:55.241Z,99.90
2022-08-05T20:57:41.985Z,99.90
2022-08-05T21:00:40.727Z,99.90
2022-08-05T21:03:07.366Z,99.90
2022-08-05T21:05:47.955Z,99.90
2022-08-05T21:08:28.193Z,99.90
2022-08-05T21:11:12.149Z,99.90
2022-08-05T21:13:48.131Z,99.90
2022-08-05T21:16:29.849Z,99.90
2022-08-05T21:19:00.327Z,99.90
2022-08-05T21:21:44.262Z,99.90
2022-08-05T21:24:19.474Z,99.90
2022-08-05T21:26:57.942Z,99.90
2022-08-05T21:29:31.758Z,99.90
2022-08-05T21:32:00.681Z,99.90
2022-08-05T21:34:28.333Z,99.90
2022-08-05T21:36:58.909Z,99.90
2022-08-05T21:39:26.742Z,99.90
2022-08-05T21:42:01.894Z,99.90
2022-08-05T21:44:32.775Z,99.90
2022-08-05T21:47:00.624Z,99.90
2022-08-05T21:49:59.500Z,99.90
2022-08-05T21:52:27.403Z,99.90
2022-08-05T21:54:56.076Z,99.90
2022-08-05T21:57:32.089Z,99.90
2022-08-05T22:00:05.993Z,99.90
2022-08-05T22:02:41.758Z,99.90
2022-08-05T22:05:11.077Z,99.90
2022-08-05T22:07:40.042Z,99.90
2022-08-05T22:10:26.935Z,99.90
2022-08-05T22:12:57.149Z,99.90
2022-08-05T22:16:02.491Z,99.90
2022-08-05T22:18:14.349Z,99.90
2022-08-05T22:20:41.916Z,99.90
2022-08-05T22:28:08.742Z,99.90
2022-08-05T22:30:35.728Z,99.90
2022-08-05T22:33:15.678Z,99.90
2022-08-05T22:35:48.976Z,99.90
2022-08-05T22:38:17.164Z,99.90
2022-08-05T22:40:49.842Z,99.90
2022-08-05T22:43:37.051Z,99.90
2022-08-05T22:46:13.501Z,99.90
2022-08-05T22:48:50.620Z,99.90
2022-08-05T22:51:23.274Z,99.90
2022-08-05T22:54:05.220Z,99.90
2022-08-05T22:56:32.310Z,99.90
2022-08-05T22:59:04.667Z,99.90
2022-08-05T23:02:04.337Z,99.90
2022-08-05T23:04:33.796Z,99.90
2022-08-05T23:07:01.054Z,99.90
2022-08-05T23:09:57.531Z,99.90
2022-08-05T23:12:17.981Z,99.90
2022-08-05T23:14:45.216Z,99.90
2022-08-05T23:17:34.624Z,99.90
2022-08-05T23:20:10.424Z,99.90
2022-08-05T23:22:47.563Z,99.90
2022-08-05T23:25:17.535Z,99.90
2022-08-05T23:28:07.047Z,99.90
2022-08-05T23:30:39.760Z,99.90
2022-08-05T23:33:16.461Z,99.90
2022-08-05T23:35:56.108Z,99.90
2022-08-05T23:38:26.183Z,99.90
2022-08-05T23:40:54.116Z,99.90
2022-08-05T23:43:25.572Z,99.90
2022-08-05T23:46:19.665Z,99.90
2022-08-05T23:49:00.440Z,99.90
2022-08-05T23:51:53.515Z,99.90
2022-08-05T23:54:30.234Z,99.90
2022-08-05T23:57:03.975Z,99.90
